createdAt,value
2022-08-19T00:00:39.669Z,28.85
2022-08-19T00:01:39.840Z,28.83
2022-08-19T00:02:39.999Z,28.83
2022-08-19T00:03:41.195Z,28.85
2022-08-19T00:04:40.409Z,28.82
2022-08-19T00:05:40.537Z,28.83
2022-08-19T00:06:40.732Z,28.81
2022-08-19T00:07:40.892Z,28.85
2022-08-19T00:08:42.934Z,28.83
2022-08-19T00:09:41.233Z,28.85
2022-08-19T00:10:41.393Z,28.81
2022-08-19T00:11:41.570Z,28.83
2022-08-19T00:12:46.845Z,28.82
2022-08-19T00:13:42.895Z,28.82
2022-08-19T00:14:42.094Z,28.79
2022-08-19T00:15:42.245Z,28.81
2022-08-19T00:16:42.436Z,28.82
2022-08-19T00:17:42.596Z,28.81
2022-08-19T00:18:42.757Z,28.79
2022-08-19T00:19:42.945Z,28.78
2022-08-19T00:20:43.099Z,28.79
2022-08-19T00:21:43.259Z,28.81
2022-08-19T00:22:43.452Z,28.79
2022-08-19T00:23:43.649Z,28.76
2022-08-19T00:24:43.827Z,28.79
2022-08-19T00:25:44.968Z,28.79
2022-08-19T00:26:44.140Z,28.76
2022-08-19T00:27:44.300Z,28.73
2022-08-19T00:28:44.460Z,28.72
2022-08-19T00:29:44.653Z,28.75
2022-08-19T00:30:44.811Z,28.70
2022-08-19T00:31:45.050Z,28.72
2022-08-19T00:32:45.153Z,28.72
2022-08-19T00:33:45.344Z,28.72
2022-08-19T00:34:45.565Z,28.68
2022-08-19T00:35:45.693Z,28.70
2022-08-19T00:36:46.874Z,28.68
2022-08-19T00:37:46.065Z,28.67
2022-08-19T00:38:46.243Z,28.67
2022-08-19T00:39:46.426Z,28.67
2022-08-19T00:40:46.538Z,28.67
2022-08-19T00:41:47.856Z,28.68
2022-08-19T00:42:46.968Z,28.68
2022-08-19T00:43:47.077Z,28.67
2022-08-19T00:44:47.262Z,28.66
2022-08-19T00:45:47.408Z,28.63
2022-08-19T00:46:57.819Z,28.67
2022-08-19T00:47:48.787Z,28.67
2022-08-19T00:48:47.979Z,28.66
2022-08-19T00:49:48.148Z,28.66
2022-08-19T00:50:52.313Z,28.66
2022-08-19T00:51:48.461Z,28.64
2022-08-19T00:52:48.737Z,28.63
2022-08-19T00:53:48.840Z,28.63
2022-08-19T00:54:52.512Z,28.63
2022-08-19T00:55:49.173Z,28.61
2022-08-19T00:56:49.343Z,28.63
2022-08-19T00:57:49.512Z,28.63
2022-08-19T00:58:49.703Z,28.60
2022-08-19T01:00:00.752Z,28.60
2022-08-19T01:00:51.076Z,28.59
2022-08-19T01:01:50.225Z,28.59
2022-08-19T01:02:50.373Z,28.57
2022-08-19T01:03:58.268Z,28.54
2022-08-19T01:04:51.739Z,28.54
2022-08-19T01:05:50.866Z,28.56
2022-08-19T01:06:51.066Z,28.54
2022-08-19T01:07:51.237Z,28.49
2022-08-19T01:08:51.397Z,28.49
2022-08-19T01:09:51.555Z,28.53
2022-08-19T01:10:51.727Z,28.49
2022-08-19T01:11:51.879Z,28.49
2022-08-19T01:12:52.201Z,28.48
2022-08-19T01:13:52.259Z,28.46
2022-08-19T01:14:52.454Z,28.46
2022-08-19T01:15:52.620Z,28.46
2022-08-19T01:16:52.780Z,28.44
2022-08-19T01:17:52.951Z,28.40
2022-08-19T01:18:53.110Z,28.40
2022-08-19T01:19:53.267Z,28.36
2022-08-19T01:20:53.441Z,28.36
2022-08-19T01:21:53.599Z,28.37
2022-08-19T01:22:54.008Z,28.32
2022-08-19T01:23:53.914Z,28.28
2022-08-19T01:24:54.073Z,28.28
2022-08-19T01:25:54.253Z,28.23
2022-08-19T01:26:54.415Z,28.25
2022-08-19T01:27:54.606Z,28.19
2022-08-19T01:28:54.765Z,28.18
2022-08-19T01:29:55.947Z,28.21
2022-08-19T01:30:55.147Z,28.16
2022-08-19T01:31:55.319Z,28.15
2022-08-19T01:32:55.476Z,28.18
2022-08-19T01:33:55.639Z,28.16
2022-08-19T01:34:55.787Z,28.18
2022-08-19T01:35:55.969Z,28.13
2022-08-19T01:36:56.129Z,28.15
2022-08-19T01:37:56.299Z,28.13
2022-08-19T01:38:56.460Z,28.16
2022-08-19T01:39:56.648Z,28.11
2022-08-19T01:40:56.819Z,28.13
2022-08-19T01:41:56.980Z,28.13
2022-08-19T01:42:57.141Z,28.11
2022-08-19T01:44:12.372Z,28.13
2022-08-19T01:44:58.494Z,28.13
2022-08-19T01:45:57.687Z,28.11
2022-08-19T01:46:57.843Z,28.10
2022-08-19T01:48:01.819Z,28.10
2022-08-19T01:48:58.175Z,28.07
2022-08-19T01:49:58.344Z,28.10
2022-08-19T01:50:58.522Z,28.10
2022-08-19T01:51:58.685Z,28.08
2022-08-19T01:53:02.448Z,28.07
2022-08-19T01:54:00.016Z,28.08
2022-08-19T01:54:59.196Z,28.08
2022-08-19T01:55:59.387Z,28.11
2022-08-19T01:56:59.549Z,28.10
2022-08-19T01:57:59.706Z,28.08
2022-08-19T01:58:59.865Z,28.10
2022-08-19T02:00:00.053Z,28.08
2022-08-19T02:01:00.234Z,28.08
2022-08-19T02:02:00.369Z,28.08
2022-08-19T02:03:00.542Z,28.11
2022-08-19T02:04:00.712Z,28.10
2022-08-19T02:05:00.870Z,28.10
2022-08-19T02:06:01.029Z,28.10
2022-08-19T02:07:01.180Z,28.10
2022-08-19T02:08:01.364Z,28.11
2022-08-19T02:09:01.532Z,28.15
2022-08-19T02:10:03.725Z,28.10
2022-08-19T02:11:02.867Z,28.08
2022-08-19T02:12:02.026Z,28.08
2022-08-19T02:13:02.183Z,28.07
2022-08-19T02:14:02.364Z,28.07
2022-08-19T02:15:02.524Z,28.07
2022-08-19T02:16:04.510Z,28.07
2022-08-19T02:17:02.894Z,28.04
2022-08-19T02:18:03.086Z,28.06
2022-08-19T02:19:03.276Z,28.04
2022-08-19T02:20:03.435Z,28.04
2022-08-19T02:21:03.597Z,28.04
2022-08-19T02:22:03.787Z,28.06
2022-08-19T02:23:03.947Z,28.04
2022-08-19T02:24:04.157Z,28.03
2022-08-19T02:25:04.310Z,28.04
2022-08-19T02:26:04.479Z,28.00
2022-08-19T02:27:04.638Z,28.01
2022-08-19T02:28:04.799Z,28.01
2022-08-19T02:29:04.980Z,28.00
2022-08-19T02:30:05.140Z,27.95
2022-08-19T02:31:05.311Z,27.99
2022-08-19T02:32:05.482Z,27.99
2022-08-19T02:33:05.635Z,27.95
2022-08-19T02:34:05.861Z,27.95
2022-08-19T02:35:12.130Z,27.94
2022-08-19T02:36:07.178Z,27.94
2022-08-19T02:37:06.360Z,27.91
2022-08-19T02:38:06.521Z,27.94
2022-08-19T02:39:06.692Z,27.91
2022-08-19T02:40:12.563Z,27.91
2022-08-19T02:41:08.035Z,27.89
2022-08-19T02:42:07.215Z,27.86
2022-08-19T02:43:07.385Z,27.88
2022-08-19T02:44:28.766Z,27.86
2022-08-19T02:45:08.735Z,27.88
2022-08-19T02:46:07.905Z,27.88
2022-08-19T02:47:08.066Z,27.89
2022-08-19T02:48:17.872Z,27.86
2022-08-19T02:49:09.392Z,27.86
2022-08-19T02:50:08.549Z,27.85
2022-08-19T02:51:08.708Z,27.82
2022-08-19T02:52:08.869Z,27.84
2022-08-19T02:53:09.039Z,27.85
2022-08-19T02:54:09.210Z,27.82
2022-08-19T02:55:09.373Z,27.79
2022-08-19T02:56:09.530Z,27.82
2022-08-19T02:57:09.700Z,27.78
2022-08-19T02:58:09.881Z,27.78
2022-08-19T02:59:11.120Z,27.76
2022-08-19T03:00:10.222Z,27.74
2022-08-19T03:01:10.403Z,27.73
2022-08-19T03:02:10.565Z,27.71
2022-08-19T03:03:10.737Z,27.71
2022-08-19T03:04:10.897Z,27.70
2022-08-19T03:05:11.069Z,27.71
2022-08-19T03:06:11.226Z,27.67
2022-08-19T03:07:11.516Z,27.69
2022-08-19T03:08:15.686Z,27.67
2022-08-19T03:09:11.743Z,27.67
2022-08-19T03:10:11.919Z,27.64
2022-08-19T03:11:12.056Z,27.64
2022-08-19T03:12:12.247Z,27.66
2022-08-19T03:13:12.408Z,27.63
2022-08-19T03:14:12.566Z,27.63
2022-08-19T03:15:12.758Z,27.62
2022-08-19T03:16:12.918Z,27.62
2022-08-19T03:17:13.090Z,27.62
2022-08-19T03:18:13.250Z,27.60
2022-08-19T03:19:13.410Z,27.62
2022-08-19T03:20:13.570Z,27.60
2022-08-19T03:21:13.740Z,27.62
2022-08-19T03:22:13.911Z,27.62
2022-08-19T03:23:14.072Z,27.62
2022-08-19T03:24:14.232Z,27.60
2022-08-19T03:25:14.402Z,27.62
2022-08-19T03:26:16.474Z,27.62
2022-08-19T03:27:14.762Z,27.60
2022-08-19T03:28:14.929Z,27.63
2022-08-19T03:29:15.095Z,27.63
2022-08-19T03:30:16.274Z,27.58
2022-08-19T03:31:45.111Z,27.63
2022-08-19T03:32:29.695Z,27.62
2022-08-19T03:33:18.269Z,27.64
2022-08-19T03:34:16.965Z,27.63
2022-08-19T03:35:16.161Z,27.63
2022-08-19T03:36:16.316Z,27.62
2022-08-19T03:37:16.479Z,27.60
2022-08-19T03:38:16.668Z,27.60
2022-08-19T03:39:16.865Z,27.62
2022-08-19T03:40:17.078Z,27.62
2022-08-19T03:41:17.158Z,27.63
2022-08-19T03:42:32.042Z,27.62
2022-08-19T03:43:18.503Z,27.66
2022-08-19T03:44:18.390Z,27.63
2022-08-19T03:45:17.849Z,27.62
2022-08-19T03:46:18.011Z,27.62
2022-08-19T03:47:18.169Z,27.63
2022-08-19T03:48:18.341Z,27.63
2022-08-19T03:49:18.759Z,27.63
2022-08-19T03:50:18.670Z,27.60
2022-08-19T03:51:18.822Z,27.63
2022-08-19T03:52:20.013Z,27.58
2022-08-19T03:53:19.203Z,27.62
2022-08-19T03:54:19.362Z,27.62
2022-08-19T03:55:19.532Z,27.63
2022-08-19T03:56:19.690Z,27.60
2022-08-19T03:57:19.844Z,27.58
2022-08-19T03:58:20.063Z,27.58
2022-08-19T03:59:20.224Z,27.58
2022-08-19T04:00:20.385Z,27.58
2022-08-19T04:01:20.568Z,27.58
2022-08-19T04:02:21.745Z,27.57
2022-08-19T04:03:20.937Z,27.55
2022-08-19T04:04:21.106Z,27.60
2022-08-19T04:05:21.275Z,27.58
2022-08-19T04:06:22.458Z,27.54
2022-08-19T04:07:21.628Z,27.57
2022-08-19T04:08:21.821Z,27.57
2022-08-19T04:09:21.959Z,27.55
2022-08-19T04:10:22.140Z,27.57
2022-08-19T04:11:22.310Z,27.58
2022-08-19T04:12:23.512Z,27.60
2022-08-19T04:13:22.678Z,27.60
2022-08-19T04:14:22.822Z,27.60
2022-08-19T04:15:23.012Z,27.62
2022-08-19T04:16:23.194Z,27.60
2022-08-19T04:17:24.393Z,27.60
2022-08-19T04:18:23.552Z,27.60
2022-08-19T04:19:23.712Z,27.58
2022-08-19T04:20:23.894Z,27.60
2022-08-19T04:21:24.075Z,27.60
2022-08-19T04:22:24.251Z,27.62
2022-08-19T04:23:24.664Z,27.63
2022-08-19T04:24:24.584Z,27.60
2022-08-19T04:25:24.766Z,27.62
2022-08-19T04:26:24.947Z,27.63
2022-08-19T04:27:25.127Z,27.62
2022-08-19T04:28:25.327Z,27.63
2022-08-19T04:29:25.477Z,27.58
2022-08-19T04:30:25.655Z,27.62
2022-08-19T04:31:25.828Z,27.62
2022-08-19T04:32:26.013Z,27.64
2022-08-19T04:33:28.475Z,27.60
2022-08-19T04:34:26.370Z,27.64
2022-08-19T04:35:26.541Z,27.63
2022-08-19T04:36:26.720Z,27.58
2022-08-19T04:37:26.911Z,27.63
2022-08-19T04:38:27.084Z,27.66
2022-08-19T04:39:27.242Z,27.66
2022-08-19T04:40:27.422Z,27.62
2022-08-19T04:41:27.601Z,27.63
2022-08-19T04:42:30.920Z,27.66
2022-08-19T04:43:27.953Z,27.63
2022-08-19T04:44:28.114Z,27.64
2022-08-19T04:45:28.264Z,27.64
2022-08-19T04:46:40.006Z,27.66
2022-08-19T04:47:47.725Z,27.67
2022-08-19T04:48:29.791Z,27.64
2022-08-19T04:49:28.955Z,27.66
2022-08-19T04:50:29.137Z,27.67
2022-08-19T04:51:29.305Z,27.66
2022-08-19T04:52:29.492Z,27.66
2022-08-19T04:53:29.676Z,27.70
2022-08-19T04:54:37.444Z,27.69
2022-08-19T04:55:32.624Z,27.69
2022-08-19T04:56:30.188Z,27.70
2022-08-19T04:57:30.370Z,27.70
2022-08-19T04:58:30.570Z,27.70
2022-08-19T04:59:30.739Z,27.69
2022-08-19T05:00:30.939Z,27.74
2022-08-19T05:01:31.117Z,27.71
2022-08-19T05:02:31.269Z,27.74
2022-08-19T05:03:31.462Z,27.71
2022-08-19T05:04:31.622Z,27.74
2022-08-19T05:05:31.801Z,27.76
2022-08-19T05:06:32.962Z,27.78
2022-08-19T05:07:32.152Z,27.81
2022-08-19T05:08:32.313Z,27.79
2022-08-19T05:09:39.028Z,27.82
2022-08-19T05:10:33.698Z,27.81
2022-08-19T05:11:32.864Z,27.82
2022-08-19T05:12:33.074Z,27.85
2022-08-19T05:13:33.242Z,27.84
2022-08-19T05:14:33.424Z,27.84
2022-08-19T05:15:33.578Z,27.85
2022-08-19T05:16:33.755Z,27.85
2022-08-19T05:17:38.267Z,27.88
2022-08-19T05:18:35.097Z,27.88
2022-08-19T05:19:34.268Z,27.88
2022-08-19T05:20:34.458Z,27.92
2022-08-19T05:21:34.628Z,27.89
2022-08-19T05:22:34.808Z,27.92
2022-08-19T05:23:34.977Z,27.92
2022-08-19T05:24:35.163Z,27.91
2022-08-19T05:25:35.349Z,27.94
2022-08-19T05:26:35.530Z,27.95
2022-08-19T05:27:35.690Z,27.95
2022-08-19T05:28:35.882Z,27.95
2022-08-19T05:29:36.327Z,27.95
2022-08-19T05:30:46.844Z,27.95
2022-08-19T05:31:37.392Z,27.97
2022-08-19T05:32:36.565Z,27.95
2022-08-19T05:33:36.753Z,27.99
2022-08-19T05:34:36.903Z,28.01
2022-08-19T05:35:37.113Z,28.00
2022-08-19T05:36:37.253Z,28.03
2022-08-19T05:37:37.432Z,28.01
2022-08-19T05:38:37.605Z,28.03
2022-08-19T05:39:37.781Z,28.04
2022-08-19T05:40:37.938Z,28.01
2022-08-19T05:41:38.103Z,28.03
2022-08-19T05:42:38.288Z,28.03
2022-08-19T05:43:38.479Z,28.03
2022-08-19T05:44:38.627Z,28.07
2022-08-19T05:45:38.812Z,28.06
2022-08-19T05:46:38.981Z,28.07
2022-08-19T05:47:42.183Z,28.08
2022-08-19T05:48:39.348Z,28.07
2022-08-19T05:49:39.539Z,28.07
2022-08-19T05:50:39.709Z,28.10
2022-08-19T05:51:39.879Z,28.11
2022-08-19T05:52:43.801Z,28.11
2022-08-19T05:53:41.221Z,28.13
2022-08-19T05:54:40.400Z,28.13
2022-08-19T05:55:40.610Z,28.11
2022-08-19T05:56:40.752Z,28.16
2022-08-19T05:57:40.922Z,28.16
2022-08-19T05:58:41.113Z,28.16
2022-08-19T05:59:41.299Z,28.16
2022-08-19T06:00:41.494Z,28.21
2022-08-19T06:01:41.671Z,28.21
2022-08-19T06:02:41.909Z,28.19
2022-08-19T06:03:42.045Z,28.21
2022-08-19T06:04:42.235Z,28.23
2022-08-19T06:05:49.760Z,28.26
2022-08-19T06:06:43.550Z,28.25
2022-08-19T06:07:42.747Z,28.26
2022-08-19T06:08:42.898Z,28.28
2022-08-19T06:09:43.762Z,28.29
2022-08-19T06:10:44.236Z,28.29
2022-08-19T06:11:43.386Z,28.32
2022-08-19T06:12:43.568Z,28.36
2022-08-19T06:13:43.759Z,28.36
2022-08-19T06:14:43.939Z,28.37
2022-08-19T06:15:44.111Z,28.37
2022-08-19T06:16:44.310Z,28.40
2022-08-19T06:17:44.471Z,28.44
2022-08-19T06:18:44.641Z,28.44
2022-08-19T06:19:44.825Z,28.46
2022-08-19T06:21:00.241Z,28.45
2022-08-19T06:21:46.316Z,28.46
2022-08-19T06:22:45.351Z,28.49
2022-08-19T06:23:45.533Z,28.48
2022-08-19T06:24:45.718Z,28.51
2022-08-19T06:25:45.921Z,28.53
2022-08-19T06:28:13.443Z,28.56
2022-08-19T06:28:47.451Z,28.54
2022-08-19T06:29:46.606Z,28.54
2022-08-19T06:30:46.803Z,28.53
2022-08-19T06:31:46.984Z,28.54
2022-08-19T06:32:47.137Z,28.56
2022-08-19T06:33:47.323Z,28.60
2022-08-19T06:34:47.518Z,28.59
2022-08-19T06:35:47.834Z,28.60
2022-08-19T06:36:47.841Z,28.63
2022-08-19T06:37:48.089Z,28.66
2022-08-19T06:38:48.179Z,28.64
2022-08-19T06:39:48.444Z,28.67
2022-08-19T06:40:48.565Z,28.70
2022-08-19T06:41:51.824Z,28.70
2022-08-19T06:42:54.206Z,28.75
2022-08-19T06:43:50.045Z,28.75
2022-08-19T06:44:49.296Z,28.73
2022-08-19T06:45:49.436Z,28.76
2022-08-19T06:46:54.963Z,28.78
2022-08-19T06:47:50.773Z,28.81
2022-08-19T06:48:49.931Z,28.82
2022-08-19T06:49:50.124Z,28.82
2022-08-19T06:50:50.284Z,28.85
2022-08-19T06:51:50.463Z,28.85
2022-08-19T06:52:50.692Z,28.90
2022-08-19T06:54:55.393Z,28.93
2022-08-19T06:55:52.186Z,28.97
2022-08-19T06:56:51.346Z,28.97
2022-08-19T06:57:51.667Z,29.00
2022-08-19T06:58:51.707Z,28.98
2022-08-19T06:59:51.896Z,29.04
2022-08-19T07:00:52.112Z,29.04
2022-08-19T07:01:52.271Z,29.07
2022-08-19T07:02:57.443Z,29.09
2022-08-19T07:03:53.619Z,29.10
2022-08-19T07:04:52.970Z,29.12
2022-08-19T07:05:52.990Z,29.13
2022-08-19T07:06:54.855Z,29.16
2022-08-19T07:07:53.323Z,29.18
2022-08-19T07:08:53.450Z,29.22
2022-08-19T07:09:59.291Z,29.20
2022-08-19T07:10:54.834Z,29.22
2022-08-19T07:11:53.993Z,29.25
2022-08-19T07:12:54.410Z,29.22
2022-08-19T07:13:54.333Z,29.25
2022-08-19T07:14:54.604Z,29.28
2022-08-19T07:15:54.693Z,29.28
2022-08-19T07:16:54.897Z,29.27
2022-08-19T07:17:55.067Z,29.28
2022-08-19T07:18:55.239Z,29.28
2022-08-19T07:19:55.440Z,29.30
2022-08-19T07:20:55.641Z,29.27
2022-08-19T07:21:55.812Z,29.30
2022-08-19T07:22:56.120Z,29.28
2022-08-19T07:23:56.148Z,29.22
2022-08-19T07:24:56.327Z,29.27
2022-08-19T07:25:56.562Z,29.27
2022-08-19T07:26:56.686Z,29.23
2022-08-19T07:27:56.965Z,29.25
2022-08-19T07:28:57.049Z,29.23
2022-08-19T07:29:59.673Z,29.23
2022-08-19T07:30:57.442Z,29.22
2022-08-19T07:31:57.593Z,29.25
2022-08-19T07:32:57.770Z,29.25
2022-08-19T07:33:57.950Z,29.23
2022-08-19T07:34:58.136Z,29.22
2022-08-19T07:35:58.329Z,29.25
2022-08-19T07:36:58.485Z,29.19
2022-08-19T07:37:58.681Z,29.22
2022-08-19T07:38:58.833Z,29.20
2022-08-19T07:39:59.128Z,29.20
2022-08-19T07:40:59.193Z,29.22
2022-08-19T07:41:59.363Z,29.20
2022-08-19T07:42:59.554Z,29.22
2022-08-19T07:43:59.746Z,29.19
2022-08-19T07:44:59.914Z,29.19
2022-08-19T07:46:00.141Z,29.22
2022-08-19T07:47:00.257Z,29.20
2022-08-19T07:48:00.758Z,29.22
2022-08-19T07:49:00.626Z,29.23
2022-08-19T07:50:00.828Z,29.22
2022-08-19T07:51:00.987Z,29.22
2022-08-19T07:52:01.175Z,29.25
2022-08-19T07:53:01.354Z,29.22
2022-08-19T07:54:01.539Z,29.23
2022-08-19T07:55:01.739Z,29.25
2022-08-19T07:56:01.924Z,29.22
2022-08-19T07:57:02.063Z,29.20
2022-08-19T07:58:02.229Z,29.22
2022-08-19T07:59:02.388Z,29.15
2022-08-19T08:00:02.555Z,29.18
2022-08-19T08:01:02.742Z,29.13
2022-08-19T08:02:02.946Z,29.09
2022-08-19T08:03:03.062Z,29.09
2022-08-19T08:04:03.270Z,29.01
2022-08-19T08:05:03.404Z,28.97
2022-08-19T08:06:03.574Z,28.94
2022-08-19T08:07:03.738Z,28.93
2022-08-19T08:08:03.914Z,28.93
2022-08-19T08:09:04.075Z,28.90
2022-08-19T08:10:04.246Z,28.86
2022-08-19T08:11:04.416Z,28.83
2022-08-19T08:12:17.983Z,28.82
2022-08-19T08:13:09.382Z,28.81
2022-08-19T08:14:04.937Z,28.79
2022-08-19T08:15:05.111Z,28.75
2022-08-19T08:16:05.295Z,28.78
2022-08-19T08:17:11.044Z,28.76
2022-08-19T08:18:05.648Z,28.75
2022-08-19T08:19:12.580Z,28.72
2022-08-19T08:20:06.964Z,28.70
2022-08-19T08:21:06.151Z,28.64
2022-08-19T08:22:06.322Z,28.57
2022-08-19T08:23:06.482Z,28.57
2022-08-19T08:24:06.658Z,28.44
2022-08-19T08:25:06.813Z,28.44
2022-08-19T08:26:06.983Z,28.40
2022-08-19T08:27:11.251Z,28.37
2022-08-19T08:28:07.311Z,28.36
2022-08-19T08:29:12.191Z,28.30
2022-08-19T08:30:08.647Z,28.28
2022-08-19T08:31:09.352Z,28.25
2022-08-19T08:32:14.092Z,28.18
2022-08-19T08:33:09.220Z,28.18
2022-08-19T08:34:08.321Z,28.13
2022-08-19T08:35:08.478Z,28.11
2022-08-19T08:36:08.654Z,28.08
2022-08-19T08:37:08.827Z,28.10
2022-08-19T08:38:08.987Z,28.07
2022-08-19T08:39:09.161Z,28.07
2022-08-19T08:40:13.193Z,28.04
2022-08-19T08:41:09.487Z,28.01
2022-08-19T08:42:10.156Z,28.03
2022-08-19T08:43:11.559Z,28.00
2022-08-19T08:44:09.988Z,28.00
2022-08-19T08:45:11.149Z,28.01
2022-08-19T08:46:12.189Z,27.97
2022-08-19T08:47:10.497Z,27.99
2022-08-19T08:48:22.276Z,27.95
2022-08-19T08:49:11.828Z,28.00
2022-08-19T08:50:11.000Z,28.00
2022-08-19T08:51:11.172Z,28.03
2022-08-19T08:52:11.381Z,28.01
2022-08-19T08:53:11.513Z,28.00
2022-08-19T08:54:11.683Z,28.00
2022-08-19T08:55:11.839Z,28.01
2022-08-19T08:56:12.043Z,28.01
2022-08-19T08:57:12.215Z,28.04
2022-08-19T08:58:12.355Z,28.00
2022-08-19T08:59:12.517Z,28.01
2022-08-19T09:00:15.775Z,28.04
2022-08-19T09:01:12.895Z,28.04
2022-08-19T09:02:13.038Z,28.07
2022-08-19T09:03:13.178Z,28.06
2022-08-19T09:04:13.351Z,28.06
2022-08-19T09:05:16.620Z,28.07
2022-08-19T09:06:13.678Z,28.04
2022-08-19T09:07:18.652Z,28.06
2022-08-19T09:08:15.010Z,28.01
2022-08-19T09:09:14.162Z,28.01
2022-08-19T09:10:14.333Z,28.00
2022-08-19T09:11:14.499Z,28.01
2022-08-19T09:12:15.687Z,27.99
2022-08-19T09:13:14.835Z,28.00
2022-08-19T09:14:34.953Z,28.01
2022-08-19T09:15:16.212Z,28.01
2022-08-19T09:16:15.375Z,28.01
2022-08-19T09:17:15.528Z,28.04
2022-08-19T09:18:19.274Z,28.03
2022-08-19T09:19:15.883Z,28.06
2022-08-19T09:20:17.119Z,28.03
2022-08-19T09:21:16.234Z,28.01
2022-08-19T09:22:25.420Z,28.04
2022-08-19T09:23:17.565Z,28.03
2022-08-19T09:24:16.715Z,28.04
2022-08-19T09:25:16.886Z,28.06
2022-08-19T09:26:17.055Z,28.01
2022-08-19T09:27:18.291Z,28.04
2022-08-19T09:28:25.470Z,28.03
2022-08-19T09:29:18.566Z,28.04
2022-08-19T09:30:17.762Z,28.04
2022-08-19T09:31:17.878Z,28.04
2022-08-19T09:32:26.191Z,28.07
2022-08-19T09:33:19.208Z,28.03
2022-08-19T09:34:21.262Z,28.04
2022-08-19T09:35:18.529Z,28.03
2022-08-19T09:36:21.675Z,28.01
2022-08-19T09:37:19.878Z,27.97
2022-08-19T09:38:19.062Z,27.97
2022-08-19T09:39:19.190Z,27.95
2022-08-19T09:40:19.421Z,27.95
2022-08-19T09:41:19.550Z,27.92
2022-08-19T09:42:29.950Z,27.95
2022-08-19T09:43:29.039Z,27.95
2022-08-19T09:44:21.052Z,27.97
2022-08-19T09:45:20.260Z,27.99
2022-08-19T09:46:20.413Z,27.97
2022-08-19T09:47:20.581Z,27.99
2022-08-19T09:48:23.697Z,28.01
2022-08-19T09:49:20.912Z,28.01
2022-08-19T09:50:21.078Z,28.03
2022-08-19T09:51:21.417Z,28.01
2022-08-19T09:52:21.398Z,28.06
2022-08-19T09:53:21.586Z,28.06
2022-08-19T09:54:23.758Z,28.08
2022-08-19T09:55:21.936Z,28.10
2022-08-19T09:56:22.117Z,28.11
2022-08-19T09:57:22.310Z,28.11
2022-08-19T09:58:26.549Z,28.13
2022-08-19T09:59:22.680Z,28.15
2022-08-19T10:00:22.827Z,28.16
2022-08-19T10:01:23.061Z,28.16
2022-08-19T10:02:23.141Z,28.21
2022-08-19T10:03:25.412Z,28.21
2022-08-19T10:04:25.351Z,28.23
2022-08-19T10:05:26.847Z,28.22
2022-08-19T10:06:46.147Z,28.26
2022-08-19T10:07:36.040Z,28.26
2022-08-19T10:08:26.448Z,28.28
2022-08-19T10:09:26.428Z,28.28
2022-08-19T10:10:25.531Z,28.28
2022-08-19T10:11:27.912Z,28.29
2022-08-19T10:12:25.845Z,28.32
2022-08-19T10:13:25.014Z,28.30
2022-08-19T10:14:25.184Z,28.34
2022-08-19T10:15:28.984Z,28.37
2022-08-19T10:16:26.007Z,28.36
2022-08-19T10:17:26.874Z,28.37
2022-08-19T10:18:26.876Z,28.36
2022-08-19T10:19:26.437Z,28.38
2022-08-19T10:20:26.206Z,28.34
2022-08-19T10:21:26.404Z,28.37
2022-08-19T10:22:26.582Z,28.36
2022-08-19T10:23:26.741Z,28.38
2022-08-19T10:24:27.947Z,28.37
2022-08-19T10:25:27.078Z,28.37
2022-08-19T10:26:27.243Z,28.36
2022-08-19T10:27:27.414Z,28.37
2022-08-19T10:28:27.574Z,28.38
2022-08-19T10:29:32.322Z,28.42
2022-08-19T10:30:28.958Z,28.40
2022-08-19T10:32:00.624Z,28.37
2022-08-19T10:32:34.141Z,28.44
2022-08-19T10:33:39.078Z,28.44
2022-08-19T10:34:29.597Z,28.45
2022-08-19T10:35:28.791Z,28.45
2022-08-19T10:36:28.928Z,28.48
2022-08-19T10:37:31.390Z,28.49
2022-08-19T10:38:31.407Z,28.53
2022-08-19T10:39:30.752Z,28.57
2022-08-19T10:40:29.707Z,28.56
2022-08-19T10:41:29.775Z,28.56
2022-08-19T10:42:29.945Z,28.56
2022-08-19T10:43:30.132Z,28.56
2022-08-19T10:44:32.640Z,28.56
2022-08-19T10:45:30.463Z,28.54
2022-08-19T10:46:30.616Z,28.56
2022-08-19T10:47:31.544Z,28.56
2022-08-19T10:48:30.967Z,28.57
2022-08-19T10:49:31.141Z,28.53
2022-08-19T10:50:31.318Z,28.53
2022-08-19T10:51:31.478Z,28.54
2022-08-19T10:52:32.547Z,28.56
2022-08-19T10:53:31.834Z,28.53
2022-08-19T10:54:33.244Z,28.53
2022-08-19T10:55:32.172Z,28.53
2022-08-19T10:56:32.338Z,28.51
2022-08-19T10:57:52.317Z,28.51
2022-08-19T10:58:33.672Z,28.53
2022-08-19T10:59:36.219Z,28.48
2022-08-19T11:00:33.047Z,28.51
2022-08-19T11:01:33.270Z,28.51
2022-08-19T11:02:33.373Z,28.49
2022-08-19T11:03:33.552Z,28.49
2022-08-19T11:04:33.713Z,28.49
2022-08-19T11:05:39.920Z,28.49
2022-08-19T11:06:35.104Z,28.48
2022-08-19T11:07:34.234Z,28.49
2022-08-19T11:08:34.394Z,28.44
2022-08-19T11:09:34.672Z,28.46
2022-08-19T11:10:34.720Z,28.44
2022-08-19T11:11:34.917Z,28.44
2022-08-19T11:12:35.086Z,28.42
2022-08-19T11:13:35.258Z,28.40
2022-08-19T11:14:35.430Z,28.44
2022-08-19T11:15:35.626Z,28.44
2022-08-19T11:16:35.748Z,28.42
2022-08-19T11:17:35.944Z,28.42
2022-08-19T11:18:36.109Z,28.45
2022-08-19T11:19:36.269Z,28.38
2022-08-19T11:20:36.450Z,28.38
2022-08-19T11:21:36.610Z,28.42
2022-08-19T11:22:41.654Z,28.36
2022-08-19T11:23:37.961Z,28.36
2022-08-19T11:24:37.113Z,28.37
2022-08-19T11:25:37.342Z,28.34
2022-08-19T11:26:37.482Z,28.32
2022-08-19T11:27:37.673Z,28.30
2022-08-19T11:28:37.853Z,28.34
2022-08-19T11:29:38.042Z,28.29
2022-08-19T11:30:38.242Z,28.34
2022-08-19T11:31:38.425Z,28.32
2022-08-19T11:32:38.564Z,28.30
2022-08-19T11:33:38.735Z,28.29
2022-08-19T11:34:38.894Z,28.28
2022-08-19T11:35:39.076Z,28.28
2022-08-19T11:36:39.236Z,28.28
2022-08-19T11:37:39.407Z,28.25
2022-08-19T11:38:39.587Z,28.25
2022-08-19T11:39:39.862Z,28.28
2022-08-19T11:40:39.927Z,28.28
2022-08-19T11:41:40.094Z,28.23
2022-08-19T11:42:40.249Z,28.23
2022-08-19T11:43:40.437Z,28.26
2022-08-19T11:44:40.589Z,28.26
2022-08-19T11:45:40.777Z,28.26
2022-08-19T11:46:40.920Z,28.29
2022-08-19T11:47:41.110Z,28.29
2022-08-19T11:48:41.276Z,28.28
2022-08-19T11:49:41.450Z,28.26
2022-08-19T11:50:41.633Z,28.30
2022-08-19T11:51:41.802Z,28.29
2022-08-19T11:52:41.983Z,28.28
2022-08-19T11:53:42.154Z,28.28
2022-08-19T11:54:42.312Z,28.29
2022-08-19T11:55:43.399Z,28.28
2022-08-19T11:56:42.659Z,28.28
2022-08-19T11:57:42.856Z,28.26
2022-08-19T11:58:42.984Z,28.28
2022-08-19T11:59:43.154Z,28.25
2022-08-19T12:00:43.333Z,28.25
2022-08-19T12:01:43.533Z,28.28
2022-08-19T12:02:43.659Z,28.25
2022-08-19T12:03:43.846Z,28.23
2022-08-19T12:04:43.947Z,28.23
2022-08-19T12:05:44.127Z,28.25
2022-08-19T12:06:44.279Z,28.26
2022-08-19T12:07:44.471Z,28.28
2022-08-19T12:08:44.629Z,28.28
2022-08-19T12:09:44.790Z,28.23
2022-08-19T12:10:44.964Z,28.23
2022-08-19T12:11:45.129Z,28.21
2022-08-19T12:12:45.308Z,28.22
2022-08-19T12:13:45.452Z,28.23
2022-08-19T12:14:45.621Z,28.23
2022-08-19T12:15:45.802Z,28.21
2022-08-19T12:16:51.254Z,28.19
2022-08-19T12:17:47.131Z,28.19
2022-08-19T12:18:46.282Z,28.21
2022-08-19T12:19:46.463Z,28.19
2022-08-19T12:20:46.654Z,28.19
2022-08-19T12:21:46.865Z,28.19
2022-08-19T12:22:47.018Z,28.16
2022-08-19T12:23:47.189Z,28.18
2022-08-19T12:24:47.345Z,28.18
2022-08-19T12:25:47.516Z,28.13
2022-08-19T12:26:53.723Z,28.18
2022-08-19T12:27:56.778Z,28.19
2022-08-19T12:28:49.017Z,28.18
2022-08-19T12:29:48.195Z,28.18
2022-08-19T12:30:48.351Z,28.19
2022-08-19T12:31:48.548Z,28.21
2022-08-19T12:32:48.708Z,28.18
2022-08-19T12:33:48.870Z,28.18
2022-08-19T12:34:49.049Z,28.19
2022-08-19T12:35:49.210Z,28.19
2022-08-19T12:36:49.382Z,28.21
2022-08-19T12:37:56.779Z,28.19
2022-08-19T12:38:50.726Z,28.18
2022-08-19T12:39:49.913Z,28.18
2022-08-19T12:40:50.047Z,28.18
2022-08-19T12:41:51.467Z,28.18
2022-08-19T12:42:50.392Z,28.18
2022-08-19T12:43:50.573Z,28.18
2022-08-19T12:44:50.722Z,28.21
2022-08-19T12:45:50.902Z,28.18
2022-08-19T12:46:51.064Z,28.18
2022-08-19T12:47:51.335Z,28.22
2022-08-19T12:48:55.266Z,28.19
2022-08-19T12:49:53.790Z,28.21
2022-08-19T12:50:51.745Z,28.22
2022-08-19T12:51:51.907Z,28.19
2022-08-19T12:52:52.066Z,28.21
2022-08-19T12:53:52.234Z,28.21
2022-08-19T12:54:54.423Z,28.22
2022-08-19T12:55:52.588Z,28.22
2022-08-19T12:56:52.768Z,28.21